Time;durP1;ratioP1;P1;durP2;ratioP2;P2;SDS_P1;SDS_P2;PMS_P1;PMS_P2;Temp;Humidity;BMP_temperature;BMP_pressure;BME280_temperature;BME280_humidity;BME280_pressure;Samples;Min_cycle;Max_cycle;Signal;HPM_P1;HPM_P2
2023/01/03 00:04:15;;;;;;;14.07;8.43;;;;;;;;;;10415590;28;20030;-58
2023/01/03 00:09:17;;;;;;;23.40;8.82;;;;;;;;;;10414781;28;20029;-58
2023/01/03 00:14:20;;;;;;;16.02;8.48;;;;;;;;;;10415383;28;20026;-58
2023/01/03 00:19:23;;;;;;;13.88;7.97;;;;;;;;;;10414698;28;20026;-58
2023/01/03 00:24:23;;;;;;;13.70;8.85;;;;;;;;;;10415663;28;20376;-59
2023/01/03 00:29:25;;;;;;;13.52;8.77;;;;;;;;;;10414278;28;20053;-59
2023/01/03 00:34:25;;;;;;;16.30;8.90;;;;;;;;;;10414860;28;20032;-59
2023/01/03 00:39:26;;;;;;;12.68;8.52;;;;;;;;;;10414817;28;20112;-58
2023/01/03 00:44:26;;;;;;;13.85;7.90;;;;;;;;;;10421375;28;20030;-58
2023/01/03 00:49:27;;;;;;;15.25;8.38;;;;;;;;;;10422178;28;20072;-59
2023/01/03 00:54:28;;;;;;;17.55;8.18;;;;;;;;;;10422078;28;20361;-58
2023/01/03 00:59:28;;;;;;;16.35;8.00;;;;;;;;;;10421905;28;20099;-59
2023/01/03 01:04:30;;;;;;;18.67;8.05;;;;;;;;;;10421668;28;20356;-58
2023/01/03 01:09:32;;;;;;;13.65;8.05;;;;;;;;;;10420756;28;20465;-58
2023/01/03 01:14:33;;;;;;;16.30;7.97;;;;;;;;;;10420725;28;20080;-59
2023/01/03 01:19:40;;;;;;;12.55;7.85;;;;;;;;;;10421166;28;20033;-58
2023/01/03 01:24:41;;;;;;;13.50;7.63;;;;;;;;;;10420836;28;20033;-58
2023/01/03 01:29:42;;;;;;;15.88;7.82;;;;;;;;;;10419925;28;20045;-58
2023/01/03 01:34:43;;;;;;;14.38;7.65;;;;;;;;;;10419959;28;20033;-58
2023/01/03 01:39:44;;;;;;;13.20;7.68;;;;;;;;;;10420980;28;20025;-59
2023/01/03 01:44:45;;;;;;;10.68;7.05;;;;;;;;;;10420581;28;20021;-59
2023/01/03 01:49:47;;;;;;;13.88;7.70;;;;;;;;;;10419373;28;20025;-59
2023/01/03 01:54:49;;;;;;;18.65;8.30;;;;;;;;;;10419492;28;20109;-59
2023/01/03 01:59:49;;;;;;;12.00;7.15;;;;;;;;;;10419669;28;20128;-59
2023/01/03 02:04:52;;;;;;;13.32;7.13;;;;;;;;;;10418857;28;20049;-59
2023/01/03 02:09:54;;;;;;;13.93;7.72;;;;;;;;;;10419227;28;20483;-59
2023/01/03 02:14:55;;;;;;;12.77;6.75;;;;;;;;;;10418931;28;20032;-58
2023/01/03 02:20:11;;;;;;;11.57;7.20;;;;;;;;;;10418299;28;20026;-59
2023/01/03 02:25:21;;;;;;;10.63;7.22;;;;;;;;;;10416550;28;20128;-58
2023/01/03 02:30:24;;;;;;;11.52;7.13;;;;;;;;;;10418375;28;20044;-59
2023/01/03 02:35:28;;;;;;;10.60;6.78;;;;;;;;;;10417577;28;20365;-59
2023/01/03 02:40:38;;;;;;;10.02;6.80;;;;;;;;;;10417410;28;20075;-59
2023/01/03 02:45:42;;;;;;;8.65;6.43;;;;;;;;;;10417140;28;20017;-59
2023/01/03 02:50:46;;;;;;;11.30;6.97;;;;;;;;;;10416972;28;20040;-58
2023/01/03 02:55:48;;;;;;;10.48;7.03;;;;;;;;;;10416827;28;20025;-58
2023/01/03 03:00:51;;;;;;;10.88;6.85;;;;;;;;;;10416681;28;20155;-59
2023/01/03 03:05:57;;;;;;;9.50;6.60;;;;;;;;;;10416694;28;20152;-59
2023/01/03 03:16:17;;;;;;;10.07;6.38;;;;;;;;;;10416677;28;20041;-58
2023/01/03 03:26:40;;;;;;;11.43;6.43;;;;;;;;;;10416400;28;20049;-59
2023/01/03 03:31:44;;;;;;;9.85;6.38;;;;;;;;;;10416204;28;20086;-58
2023/01/03 03:36:55;;;;;;;9.45;6.57;;;;;;;;;;10415518;28;20037;-58
2023/01/03 03:47:45;;;;;;;8.60;5.95;;;;;;;;;;10415762;28;20037;-59
2023/01/03 03:52:48;;;;;;;7.47;5.80;;;;;;;;;;10415729;28;20083;-59
2023/01/03 03:58:00;;;;;;;10.10;6.47;;;;;;;;;;10415610;28;20423;-58
2023/01/03 04:03:02;;;;;;;8.38;6.47;;;;;;;;;;10415648;28;20068;-59
2023/01/03 04:08:03;;;;;;;8.48;6.00;;;;;;;;;;10414916;28;20066;-59
2023/01/03 04:13:05;;;;;;;9.70;6.45;;;;;;;;;;10414745;28;20420;-59
2023/01/03 04:18:06;;;;;;;9.23;6.32;;;;;;;;;;10420198;28;20033;-58
2023/01/03 04:23:06;;;;;;;11.18;6.82;;;;;;;;;;10422807;28;20026;-59
2023/01/03 04:28:07;;;;;;;8.57;6.45;;;;;;;;;;10422752;28;20124;-59
2023/01/03 04:33:08;;;;;;;10.00;6.88;;;;;;;;;;10423483;28;20076;-59
2023/01/03 04:38:09;;;;;;;9.10;6.28;;;;;;;;;;10422200;28;20112;-58
2023/01/03 04:48:29;;;;;;;10.70;7.05;;;;;;;;;;10422015;28;20067;-59
2023/01/03 04:53:29;;;;;;;9.55;6.32;;;;;;;;;;10421600;28;20029;-59
2023/01/03 04:58:30;;;;;;;9.43;6.35;;;;;;;;;;10421437;28;20447;-59
2023/01/03 05:03:31;;;;;;;10.88;6.78;;;;;;;;;;10422395;28;20454;-59
2023/01/03 05:08:32;;;;;;;9.70;6.43;;;;;;;;;;10421013;28;20038;-58
2023/01/03 05:13:33;;;;;;;8.50;6.15;;;;;;;;;;10421414;28;20034;-59
2023/01/03 05:18:34;;;;;;;10.85;6.20;;;;;;;;;;10420788;28;20032;-59
2023/01/03 05:28:53;;;;;;;;;;;;;;;;;;10419970;28;20073;-59
2023/01/03 05:33:55;;;;;;;10.30;6.35;;;;;;;;;;10420626;28;19964;-59
2023/01/03 05:38:56;;;;;;;9.95;6.43;;;;;;;;;;10419793;28;20032;-59
2023/01/03 05:43:57;;;;;;;10.38;6.68;;;;;;;;;;10420393;28;20029;-59
2023/01/03 05:48:58;;;;;;;9.25;6.03;;;;;;;;;;10419558;28;20508;-59
2023/01/03 05:53:59;;;;;;;9.60;6.45;;;;;;;;;;10419392;28;20079;-59
2023/01/03 05:59:00;;;;;;;8.38;5.95;;;;;;;;;;10419138;28;20022;-59
2023/01/03 06:04:01;;;;;;;10.30;6.80;;;;;;;;;;10419014;28;20105;-59
2023/01/03 06:09:02;;;;;;;10.20;7.22;;;;;;;;;;10418798;28;20029;-59
2023/01/03 06:14:02;;;;;;;10.10;6.70;;;;;;;;;;10418516;28;20488;-59
2023/01/03 06:19:04;;;;;;;8.30;6.25;;;;;;;;;;10418267;28;20032;-59
2023/01/03 06:24:09;;;;;;;8.45;6.68;;;;;;;;;;10418758;28;20037;-59
2023/01/03 06:29:10;;;;;;;8.20;6.15;;;;;;;;;;10417541;28;20072;-59
2023/01/03 06:34:11;;;;;;;9.27;6.45;;;;;;;;;;10417743;28;20040;-59
2023/01/03 06:39:12;;;;;;;8.40;6.57;;;;;;;;;;10416549;28;20041;-59
2023/01/03 06:44:13;;;;;;;8.48;6.07;;;;;;;;;;10418406;28;20029;-59
2023/01/03 06:54:36;;;;;;;11.23;6.80;;;;;;;;;;10417446;28;20045;-59
2023/01/03 06:59:37;;;;;;;12.60;6.05;;;;;;;;;;10417291;28;20035;-58
2023/01/03 07:04:38;;;;;;;7.90;5.43;;;;;;;;;;10417108;28;20101;-59
2023/01/03 07:09:38;;;;;;;10.65;5.68;;;;;;;;;;10416384;28;20389;-59
2023/01/03 07:14:39;;;;;;;17.17;6.88;;;;;;;;;;10416159;28;20056;-59
2023/01/03 07:19:39;;;;;;;14.55;6.88;;;;;;;;;;10416685;28;20060;-59
2023/01/03 07:24:40;;;;;;;11.65;6.80;;;;;;;;;;10415818;28;20031;-59
2023/01/03 07:29:41;;;;;;;9.68;6.40;;;;;;;;;;10415563;28;20132;-59
2023/01/03 07:34:41;;;;;;;13.02;6.60;;;;;;;;;;10415606;28;20029;-59
2023/01/03 07:39:42;;;;;;;15.35;6.80;;;;;;;;;;10416177;28;20113;-59
2023/01/03 07:44:43;;;;;;;13.37;7.10;;;;;;;;;;10415338;28;20022;-59
2023/01/03 07:49:43;;;;;;;12.23;7.30;;;;;;;;;;10416110;28;20545;-59
2023/01/03 07:54:44;;;;;;;12.48;7.78;;;;;;;;;;10415094;28;20033;-59
2023/01/03 07:59:44;;;;;;;12.15;8.15;;;;;;;;;;10416258;28;20172;-59
2023/01/03 08:04:45;;;;;;;13.95;8.05;;;;;;;;;;10414894;28;20025;-59
2023/01/03 08:15:05;;;;;;;12.60;8.15;;;;;;;;;;10415369;28;20473;-59
2023/01/03 08:20:06;;;;;;;13.32;8.38;;;;;;;;;;10414662;28;20029;-59
2023/01/03 08:25:07;;;;;;;14.70;9.43;;;;;;;;;;10414329;28;20022;-59
2023/01/03 08:30:08;;;;;;;20.15;9.52;;;;;;;;;;10415620;28;20034;-59
2023/01/03 08:35:10;;;;;;;16.25;8.88;;;;;;;;;;10414350;28;20049;-59
2023/01/03 08:40:13;;;;;;;16.45;9.50;;;;;;;;;;10414291;28;20041;-59
2023/01/03 08:45:16;;;;;;;14.30;8.75;;;;;;;;;;10414582;28;20093;-59
2023/01/03 08:50:17;;;;;;;17.08;10.18;;;;;;;;;;10413984;28;20029;-59
2023/01/03 08:55:18;;;;;;;14.27;9.10;;;;;;;;;;10413964;28;20026;-59
2023/01/03 09:00:19;;;;;;;15.55;8.73;;;;;;;;;;10414585;28;20041;-59
2023/01/03 09:05:20;;;;;;;16.25;9.68;;;;;;;;;;10420601;28;20025;-59
2023/01/03 09:10:21;;;;;;;14.27;8.90;;;;;;;;;;10421572;28;20025;-59
2023/01/03 09:15:22;;;;;;;17.85;9.77;;;;;;;;;;10421308;28;20033;-59
2023/01/03 09:20:23;;;;;;;14.13;9.18;;;;;;;;;;10420768;28;20028;-59
2023/01/03 09:25:23;;;;;;;16.17;9.40;;;;;;;;;;10420341;28;20092;-59
2023/01/03 09:30:24;;;;;;;15.80;8.95;;;;;;;;;;10421443;28;20119;-59
2023/01/03 09:35:25;;;;;;;15.13;9.15;;;;;;;;;;10420077;28;20116;-59
2023/01/03 09:40:25;;;;;;;16.13;8.98;;;;;;;;;;10419933;28;20030;-59
2023/01/03 09:45:31;;;;;;;15.33;9.27;;;;;;;;;;10420221;28;20129;-59
2023/01/03 09:50:34;;;;;;;13.27;8.90;;;;;;;;;;10420029;28;20479;-59
2023/01/03 10:06:31;;;;;;;15.40;10.20;;;;;;;;;;10418845;28;20034;-59
2023/01/03 10:11:43;;;;;;;13.82;9.27;;;;;;;;;;10419819;28;20048;-59
2023/01/03 10:16:54;;;;;;;14.23;9.65;;;;;;;;;;10418493;28;20026;-59
2023/01/03 10:22:00;;;;;;;13.73;8.85;;;;;;;;;;10419507;28;20060;-59
2023/01/03 10:27:13;;;;;;;11.50;8.93;;;;;;;;;;10417819;28;20366;-60
2023/01/03 10:32:23;;;;;;;13.23;8.75;;;;;;;;;;10418475;28;20025;-59
2023/01/03 10:37:24;;;;;;;14.75;9.85;;;;;;;;;;10417665;28;20029;-59
2023/01/03 10:42:27;;;;;;;13.85;8.57;;;;;;;;;;10418045;28;20071;-59
2023/01/03 10:47:28;;;;;;;16.23;9.35;;;;;;;;;;10417221;28;20034;-59
2023/01/03 10:52:39;;;;;;;15.35;9.73;;;;;;;;;;10417608;28;20033;-59
2023/01/03 10:57:52;;;;;;;12.35;9.00;;;;;;;;;;10417418;28;20108;-59
2023/01/03 11:02:54;;;;;;;12.52;9.38;;;;;;;;;;10417909;28;20018;-59
2023/01/03 11:07:57;;;;;;;14.80;9.85;;;;;;;;;;10416681;28;20071;-59
2023/01/03 11:12:57;;;;;;;13.73;8.95;;;;;;;;;;10416850;28;20083;-60
2023/01/03 11:17:58;;;;;;;12.32;8.32;;;;;;;;;;10416455;28;20138;-59
2023/01/03 11:23:02;;;;;;;15.10;9.18;;;;;;;;;;10416081;28;20029;-59
2023/01/03 11:28:03;;;;;;;13.57;9.43;;;;;;;;;;10415172;28;20092;-59
2023/01/03 11:33:22;;;;;;;11.57;7.95;;;;;;;;;;10415621;28;20056;-59
2023/01/03 11:38:32;;;;;;;13.90;9.27;;;;;;;;;;10415537;28;20032;-59
2023/01/03 11:43:48;;;;;;;15.55;8.00;;;;;;;;;;10415524;28;20037;-59
2023/01/03 11:48:52;;;;;;;11.20;7.90;;;;;;;;;;10415868;28;20026;-59
2023/01/03 11:53:53;;;;;;;12.02;8.02;;;;;;;;;;10416347;28;20029;-59
2023/01/03 11:59:02;;;;;;;12.17;8.23;;;;;;;;;;10415070;28;20037;-60
2023/01/03 12:04:22;;;;;;;12.02;8.35;;;;;;;;;;10415677;28;20410;-59
2023/01/03 12:09:22;;;;;;;9.85;7.82;;;;;;;;;;10414952;28;20072;-59
2023/01/03 12:14:36;;;;;;;13.33;9.37;;;;;;;;;;10414779;28;20030;-59
2023/01/03 12:19:44;;;;;;;12.35;8.15;;;;;;;;;;10415888;28;20025;-59
2023/01/03 12:24:49;;;;;;;10.77;7.80;;;;;;;;;;10415695;28;20032;-59
2023/01/03 12:30:11;;;;;;;13.05;8.30;;;;;;;;;;10414347;28;20037;-59
2023/01/03 12:35:18;;;;;;;14.10;9.20;;;;;;;;;;10415018;28;20026;-59
2023/01/03 12:40:25;;;;;;;12.77;8.30;;;;;;;;;;10422202;28;20021;-59
2023/01/03 12:45:29;;;;;;;14.18;9.00;;;;;;;;;;10421957;28;20540;-59
2023/01/03 12:50:33;;;;;;;12.20;7.88;;;;;;;;;;10421757;28;20377;-59
2023/01/03 12:55:57;;;;;;;11.82;8.20;;;;;;;;;;10421720;28;20064;-59
2023/01/03 13:01:00;;;;;;;11.27;8.50;;;;;;;;;;10415956;28;20033;-59
2023/01/03 13:06:00;;;;;;;10.60;7.85;;;;;;;;;;10421755;28;20101;-59
2023/01/03 13:11:03;;;;;;;11.40;7.75;;;;;;;;;;10421135;28;20057;-59
2023/01/03 13:16:24;;;;;;;11.55;8.02;;;;;;;;;;10421672;28;20079;-59
2023/01/03 13:21:44;;;;;;;10.57;8.15;;;;;;;;;;10413576;28;20034;-59
2023/01/03 13:27:04;;;;;;;10.88;7.78;;;;;;;;;;10420240;28;20489;-59
2023/01/03 13:32:14;;;;;;;13.38;8.52;;;;;;;;;;10420243;28;20052;-59
2023/01/03 13:37:16;;;;;;;11.75;8.38;;;;;;;;;;10421123;28;20406;-59
2023/01/03 13:42:37;;;;;;;11.88;7.80;;;;;;;;;;10420523;28;20033;-59
2023/01/03 13:47:44;;;;;;;10.50;7.43;;;;;;;;;;10419809;28;20037;-59
2023/01/03 13:52:58;;;;;;;12.07;8.05;;;;;;;;;;10419985;28;20125;-59
2023/01/03 13:57:59;;;;;;;12.07;8.50;;;;;;;;;;10419715;28;20025;-59
2023/01/03 14:03:02;;;;;;;10.25;7.88;;;;;;;;;;10419042;28;20031;-58
2023/01/03 14:08:21;;;;;;;12.73;8.48;;;;;;;;;;10418880;28;20045;-60
2023/01/03 14:13:21;;;;;;;;;;;;;;;;;;10419804;28;20354;-59
2023/01/03 14:18:27;;;;;;;10.85;7.30;;;;;;;;;;10418973;28;19913;-59
2023/01/03 14:23:28;;;;;;;11.10;7.75;;;;;;;;;;10418342;28;20057;-59
2023/01/03 14:28:32;;;;;;;11.75;7.60;;;;;;;;;;10416539;28;20065;-59
2023/01/03 14:33:38;;;;;;;10.68;7.65;;;;;;;;;;10417940;28;20041;-59
2023/01/03 14:38:45;;;;;;;9.93;7.35;;;;;;;;;;10418199;28;20078;-59
2023/01/03 14:43:46;;;;;;;10.73;7.90;;;;;;;;;;10418703;28;20497;-59
2023/01/03 14:48:47;;;;;;;9.15;7.32;;;;;;;;;;10417117;28;20117;-59
2023/01/03 14:53:49;;;;;;;10.35;7.63;;;;;;;;;;10418092;28;20037;-60
2023/01/03 14:58:50;;;;;;;12.80;7.90;;;;;;;;;;10416498;28;20468;-59
2023/01/03 15:03:52;;;;;;;10.40;7.65;;;;;;;;;;10416572;28;20048;-59
2023/01/03 15:08:57;;;;;;;10.73;7.70;;;;;;;;;;10416181;28;20022;-59
2023/01/03 15:14:02;;;;;;;11.27;7.53;;;;;;;;;;10417828;28;20365;-59
2023/01/03 15:19:03;;;;;;;9.63;7.18;;;;;;;;;;10416203;28;20044;-59
2023/01/03 15:24:05;;;;;;;10.45;7.43;;;;;;;;;;10416092;28;20099;-59
2023/01/03 15:29:13;;;;;;;10.02;6.95;;;;;;;;;;10424771;23;20118;-61
2023/01/03 15:34:16;;;;;;;10.47;7.50;;;;;;;;;;10408350;28;20511;-61
2023/01/03 15:39:20;;;;;;;9.93;7.53;;;;;;;;;;10393605;28;20037;-61
2023/01/03 15:44:25;;;;;;;10.75;7.85;;;;;;;;;;10387208;28;20033;-61
2023/01/03 15:49:26;;;;;;;11.45;7.90;;;;;;;;;;10369915;28;20018;-61
2023/01/03 15:54:26;;;;;;;10.65;7.07;;;;;;;;;;10371160;28;20030;-61
2023/01/03 15:59:28;;;;;;;9.63;7.20;;;;;;;;;;10384533;28;20017;-61
2023/01/03 16:04:28;;;;;;;11.65;7.68;;;;;;;;;;10400775;28;20025;-61
2023/01/03 16:09:28;;;;;;;10.23;7.50;;;;;;;;;;10395089;28;20490;-59
2023/01/03 16:14:33;;;;;;;10.20;7.90;;;;;;;;;;10397291;28;20496;-61
2023/01/03 16:19:33;;;;;;;10.05;7.63;;;;;;;;;;10386593;28;20061;-61
2023/01/03 16:24:33;;;;;;;10.00;8.00;;;;;;;;;;10399813;28;20080;-61
2023/01/03 16:29:34;;;;;;;10.43;7.70;;;;;;;;;;10408770;28;20412;-61
2023/01/03 16:34:34;;;;;;;10.07;7.55;;;;;;;;;;10402848;28;20048;-61
2023/01/03 16:39:34;;;;;;;11.07;8.13;;;;;;;;;;10390498;28;20029;-62
2023/01/03 16:44:35;;;;;;;14.70;9.38;;;;;;;;;;10373660;28;20030;-62
2023/01/03 16:49:36;;;;;;;15.68;9.60;;;;;;;;;;10366990;28;20033;-62
2023/01/03 16:54:36;;;;;;;13.05;9.30;;;;;;;;;;10374736;28;20022;-61
2023/01/03 16:59:36;;;;;;;14.02;10.48;;;;;;;;;;10372062;28;20547;-61
2023/01/03 17:04:37;;;;;;;13.23;9.60;;;;;;;;;;10372607;28;20029;-62
2023/01/03 17:09:39;;;;;;;14.85;10.68;;;;;;;;;;10373704;28;20025;-62
2023/01/03 17:14:39;;;;;;;18.38;10.75;;;;;;;;;;10375075;28;20092;-62
2023/01/03 17:19:39;;;;;;;15.13;10.52;;;;;;;;;;10379770;28;20033;-61
2023/01/03 17:24:40;;;;;;;14.25;10.57;;;;;;;;;;10370572;28;20330;-62
2023/01/03 17:29:40;;;;;;;14.82;10.43;;;;;;;;;;10371989;28;20496;-61
2023/01/03 17:34:40;;;;;;;15.60;10.10;;;;;;;;;;10371820;28;20087;-61
2023/01/03 17:39:40;;;;;;;15.88;10.93;;;;;;;;;;10360879;28;20185;-61
2023/01/03 17:49:23;;;;;;;12.68;10.05;;;;;;;;;;10342257;28;20029;-61
2023/01/03 17:50:06;;;;;;;14.60;9.77;;;;;;;;;;10337160;28;20030;-61
2023/01/03 17:55:15;;;;;;;13.63;10.00;;;;;;;;;;10337372;28;20037;-62
2023/01/03 18:00:15;;;;;;;;;;;;;;;;;;10346581;28;20049;-61
2023/01/03 18:05:16;;;;;;;17.67;10.52;;;;;;;;;;10370983;28;20269;-61
2023/01/03 18:10:17;;;;;;;14.30;9.52;;;;;;;;;;10376294;28;20408;-61
2023/01/03 18:15:19;;;;;;;15.63;11.13;;;;;;;;;;10383630;28;20022;-61
2023/01/03 18:20:20;;;;;;;16.63;11.60;;;;;;;;;;10374668;28;20041;-61
2023/01/03 18:25:24;;;;;;;18.83;11.13;;;;;;;;;;10382544;28;20032;-61
2023/01/03 18:30:24;;;;;;;16.38;10.93;;;;;;;;;;10369924;28;20042;-61
2023/01/03 18:35:24;;;;;;;15.40;11.57;;;;;;;;;;10374843;28;20392;-60
2023/01/03 18:40:28;;;;;;;16.42;10.90;;;;;;;;;;10376218;28;20100;-62
2023/01/03 18:45:28;;;;;;;18.45;12.00;;;;;;;;;;10369809;28;20073;-61
2023/01/03 18:50:29;;;;;;;15.23;10.70;;;;;;;;;;10366721;28;20117;-62
2023/01/03 18:55:31;;;;;;;18.52;11.55;;;;;;;;;;10368101;28;20131;-61
2023/01/03 19:00:31;;;;;;;20.73;10.90;;;;;;;;;;10369146;28;20069;-62
2023/01/03 19:05:31;;;;;;;20.27;11.55;;;;;;;;;;10367881;28;20153;-62
2023/01/03 19:10:31;;;;;;;18.40;10.90;;;;;;;;;;10369475;28;20022;-62
2023/01/03 19:15:32;;;;;;;22.67;11.07;;;;;;;;;;10375922;28;20044;-62
2023/01/03 19:20:34;;;;;;;20.02;10.73;;;;;;;;;;10343520;28;20037;-62
2023/01/03 19:25:34;;;;;;;16.83;10.18;;;;;;;;;;10358530;28;20461;-60
2023/01/03 19:30:37;;;;;;;16.60;10.18;;;;;;;;;;10369897;28;20046;-62
2023/01/03 19:35:37;;;;;;;18.40;11.32;;;;;;;;;;10369992;28;20045;-61
2023/01/03 19:40:38;;;;;;;16.98;11.05;;;;;;;;;;10364713;28;20036;-62
2023/01/03 19:45:39;;;;;;;21.58;12.27;;;;;;;;;;10383016;28;20026;-62
2023/01/03 19:50:40;;;;;;;23.23;12.40;;;;;;;;;;10376650;28;20018;-62
2023/01/03 19:55:42;;;;;;;18.52;12.02;;;;;;;;;;10366377;28;20033;-62
2023/01/03 20:00:42;;;;;;;20.95;12.45;;;;;;;;;;10366396;28;20029;-62
2023/01/03 20:05:42;;;;;;;19.63;12.40;;;;;;;;;;10371091;28;20036;-62
2023/01/03 20:10:43;;;;;;;19.80;12.68;;;;;;;;;;10366322;28;20465;-62
2023/01/03 20:15:44;;;;;;;18.75;11.38;;;;;;;;;;10366083;28;20083;-62
2023/01/03 20:20:44;;;;;;;23.70;12.35;;;;;;;;;;10369284;28;20392;-62
2023/01/03 20:25:45;;;;;;;27.52;12.95;;;;;;;;;;10399621;28;20021;-62
2023/01/03 20:30:45;;;;;;;17.48;11.77;;;;;;;;;;10398488;28;20053;-61
2023/01/03 20:35:46;;;;;;;18.85;11.40;;;;;;;;;;10392023;28;20064;-61
2023/01/03 20:40:46;;;;;;;16.60;12.33;;;;;;;;;;10386883;28;20078;-61
2023/01/03 20:45:47;;;;;;;18.15;11.55;;;;;;;;;;10380338;28;20659;-61
2023/01/03 20:50:48;;;;;;;20.17;11.55;;;;;;;;;;10365963;28;20031;-61
2023/01/03 20:55:48;;;;;;;18.58;11.10;;;;;;;;;;10369412;28;20029;-61
2023/01/03 21:00:49;;;;;;;18.80;12.52;;;;;;;;;;10386857;28;20025;-61
2023/01/03 21:05:49;;;;;;;16.45;11.82;;;;;;;;;;10406046;28;20432;-61
2023/01/03 21:10:53;;;;;;;21.80;11.50;;;;;;;;;;10400249;28;20353;-61
2023/01/03 21:15:54;;;;;;;16.48;11.40;;;;;;;;;;10394998;28;20389;-61
2023/01/03 21:20:54;;;;;;;17.30;10.98;;;;;;;;;;10374150;28;20024;-61
2023/01/03 21:25:54;;;;;;;17.88;12.27;;;;;;;;;;10383059;28;20100;-61
2023/01/03 21:30:54;;;;;;;15.77;10.80;;;;;;;;;;10406769;28;20096;-62
2023/01/03 21:35:56;;;;;;;19.70;11.70;;;;;;;;;;10400323;28;20041;-61
2023/01/03 21:40:56;;;;;;;16.70;11.33;;;;;;;;;;10394113;28;20042;-61
2023/01/03 21:45:57;;;;;;;20.02;11.80;;;;;;;;;;10387145;28;20446;-61
2023/01/03 21:50:58;;;;;;;16.77;10.77;;;;;;;;;;10371642;28;20033;-61
2023/01/03 21:55:58;;;;;;;18.95;10.77;;;;;;;;;;10374071;28;20030;-61
2023/01/03 22:01:07;;;;;;;16.43;11.40;;;;;;;;;;10381577;28;20047;-61
2023/01/03 22:06:07;;;;;;;;;;;;;;;;;;10369892;28;20035;-61
2023/01/03 22:11:07;;;;;;;17.05;10.98;;;;;;;;;;10371972;28;19925;-61
2023/01/03 22:16:08;;;;;;;16.98;11.15;;;;;;;;;;10369238;28;20393;-61
2023/01/03 22:21:09;;;;;;;18.98;11.73;;;;;;;;;;10369653;28;20377;-61
2023/01/03 22:26:12;;;;;;;19.25;11.70;;;;;;;;;;10368955;28;20444;-61
2023/01/03 22:31:15;;;;;;;17.15;11.13;;;;;;;;;;10371175;28;20084;-61
2023/01/03 22:36:15;;;;;;;19.98;10.73;;;;;;;;;;10364658;28;20079;-61
2023/01/03 22:41:16;;;;;;;17.85;11.40;;;;;;;;;;10368936;28;20040;-61
2023/01/03 22:46:17;;;;;;;22.25;12.10;;;;;;;;;;10366140;28;20022;-61
2023/01/03 22:51:17;;;;;;;21.58;11.52;;;;;;;;;;10366455;28;20487;-61
2023/01/03 22:56:17;;;;;;;19.88;12.00;;;;;;;;;;10366157;28;20451;-61
2023/01/03 23:01:21;;;;;;;20.92;12.48;;;;;;;;;;10365334;28;20105;-61
2023/01/03 23:06:21;;;;;;;22.60;12.82;;;;;;;;;;10365350;28;20096;-61
2023/01/03 23:16:42;;;;;;;17.30;11.88;;;;;;;;;;10366468;28;20037;-61
2023/01/03 23:21:44;;;;;;;22.65;12.82;;;;;;;;;;10368909;28;20025;-62
2023/01/03 23:26:44;;;;;;;21.50;12.52;;;;;;;;;;10380361;28;20029;-61
2023/01/03 23:31:44;;;;;;;18.15;11.75;;;;;;;;;;10385997;28;20046;-61
2023/01/03 23:36:45;;;;;;;19.63;12.67;;;;;;;;;;10368278;28;20030;-61
2023/01/03 23:41:45;;;;;;;24.23;12.50;;;;;;;;;;10363409;28;20022;-61
2023/01/03 23:46:45;;;;;;;21.13;12.80;;;;;;;;;;10366374;28;20027;-62
2023/01/03 23:51:45;;;;;;;20.27;12.15;;;;;;;;;;10372624;28;20502;-61
2023/01/03 23:56:46;;;;;;;18.42;12.88;;;;;;;;;;10369394;28;20117;-61
